Time;durP1;ratioP1;P1;durP2;ratioP2;P2;SDS_P1;SDS_P2;PMS_P1;PMS_P2;Temp;Humidity;BMP_temperature;BMP_pressure;BME280_temperature;BME280_humidity;BME280_pressure;Samples;Min_cycle;Max_cycle;Signal;HPM_P1;HPM_P2
2022/07/25 00:00:16;;;;;;;;;;;;;;;19.79;100.00;100850.59;10584859;28;19973;-66
2022/07/25 00:05:37;;;;;;;;;;;;;;;19.74;100.00;100849.06;10584762;28;20332;-71
2022/07/25 00:10:40;;;;;;;;;;;;;;;19.68;100.00;100839.63;10584773;28;19923;-67
2022/07/25 00:15:45;;;;;;;;;;;;;;;19.69;100.00;100838.69;10584606;28;19924;-69
2022/07/25 00:20:48;;;;;;;;;;;;;;;19.66;100.00;100836.19;10584646;28;19934;-71
2022/07/25 00:25:51;;;;;;;;;;;;;;;19.64;100.00;100834.53;10584487;28;19923;-65
2022/07/25 00:30:55;;;;;;;;;;;;;;;19.58;100.00;100827.75;10584487;28;19924;-69
2022/07/25 00:35:59;;;;;;;;;;;;;;;19.55;100.00;100814.69;10584452;28;19948;-67
2022/07/25 00:41:02;;;;;;;;;;;;;;;19.53;100.00;100816.53;10584321;28;20023;-66
2022/07/25 00:46:06;;;;;;;;;;;;;;;19.52;100.00;100806.91;10584229;28;20263;-70
2022/07/25 00:51:10;;;;;;;;;;;;;;;19.42;100.00;100805.56;10584151;28;19928;-66
2022/07/25 00:56:15;;;;;;;;;;;;;;;19.38;100.00;100811.84;10584152;28;19934;-68
2022/07/25 01:01:19;;;;;;;;;;;;;;;19.31;100.00;100819.13;10587441;28;20011;-67
2022/07/25 01:06:23;;;;;;;;;;;;;;;19.25;100.00;100824.59;10591591;28;19924;-68
2022/07/25 01:11:26;;;;;;;;;;;;;;;19.24;100.00;100832.56;10591375;28;20241;-66
2022/07/25 01:16:31;;;;;;;;;;;;;;;19.27;100.00;100825.41;10591527;28;19924;-67
2022/07/25 01:21:37;;;;;;;;;;;;;;;19.14;100.00;100816.25;10590876;28;19924;-66
2022/07/25 01:26:40;;;;;;;;;;;;;;;19.03;100.00;100820.19;10590907;28;19924;-66
2022/07/25 01:31:43;;;;;;;;;;;;;;;18.99;100.00;100821.22;10590541;28;19924;-67
2022/07/25 01:36:48;;;;;;;;;;;;;;;18.98;100.00;100811.63;10590639;28;19928;-71
2022/07/25 01:41:51;;;;;;;;;;;;;;;18.97;100.00;100812.53;10590191;28;20388;-69
2022/07/25 01:46:53;;;;;;;;;;;;;;;18.98;100.00;100806.38;10590161;28;19934;-67
2022/07/25 01:51:58;;;;;;;;;;;;;;;18.91;100.00;100797.84;10589738;28;19924;-69
2022/07/25 01:57:01;;;;;;;;;;;;;;;18.92;100.00;100806.56;10589756;28;19927;-69
2022/07/25 02:02:04;;;;;;;;;;;;;;;18.87;100.00;100806.75;10589065;28;20151;-67
2022/07/25 02:07:08;;;;;;;;;;;;;;;18.79;100.00;100808.81;10589016;28;19923;-67
2022/07/25 02:12:12;;;;;;;;;;;;;;;18.81;100.00;100809.59;10588526;28;19924;-71
2022/07/25 02:17:15;;;;;;;;;;;;;;;18.78;100.00;100808.84;10588835;28;19964;-69
2022/07/25 02:22:20;;;;;;;;;;;;;;;18.79;100.00;100800.94;10588192;28;19930;-69
2022/07/25 02:27:23;;;;;;;;;;;;;;;18.73;100.00;100805.53;10588166;28;20003;-71
2022/07/25 02:32:25;;;;;;;;;;;;;;;18.74;100.00;100804.63;10588406;28;19934;-67
2022/07/25 02:37:30;;;;;;;;;;;;;;;18.77;100.00;100808.00;10587992;28;19923;-69
2022/07/25 02:42:33;;;;;;;;;;;;;;;18.70;100.00;100805.66;10587688;28;20011;-70
2022/07/25 02:47:36;;;;;;;;;;;;;;;18.70;100.00;100805.66;10588112;28;20036;-71
2022/07/25 02:52:40;;;;;;;;;;;;;;;18.66;100.00;100798.78;10587921;28;19934;-70
2022/07/25 02:57:43;;;;;;;;;;;;;;;18.57;100.00;100813.09;10587018;28;19924;-71
2022/07/25 03:02:47;;;;;;;;;;;;;;;18.74;100.00;100815.16;10587022;28;19934;-68
2022/07/25 03:07:51;;;;;;;;;;;;;;;18.66;100.00;100825.06;10587066;28;19924;-68
2022/07/25 03:12:54;;;;;;;;;;;;;;;18.53;100.00;100821.16;10586459;28;20027;-69
2022/07/25 03:17:57;;;;;;;;;;;;;;;18.51;100.00;100817.72;10586212;28;19924;-69
2022/07/25 03:23:01;;;;;;;;;;;;;;;18.53;100.00;100813.28;10585654;28;19923;-68
2022/07/25 03:28:04;;;;;;;;;;;;;;;18.64;100.00;100814.59;10585993;28;19935;-69
2022/07/25 03:33:07;;;;;;;;;;;;;;;18.54;100.00;100807.97;10586348;28;19924;-66
2022/07/25 03:38:12;;;;;;;;;;;;;;;18.57;100.00;100807.00;10585527;28;20004;-72
2022/07/25 03:43:15;;;;;;;;;;;;;;;18.57;100.00;100807.84;10585736;28;20272;-71
2022/07/25 03:48:20;;;;;;;;;;;;;;;18.65;100.00;100812.84;10584615;28;20404;-70
2022/07/25 03:53:24;;;;;;;;;;;;;;;18.82;100.00;100826.25;10585267;28;20247;-70
2022/07/25 03:58:27;;;;;;;;;;;;;;;18.65;100.00;100808.47;10585494;28;19924;-68
2022/07/25 04:03:30;;;;;;;;;;;;;;;18.74;100.00;100809.91;10584979;28;20272;-69
2022/07/25 04:08:43;;;;;;;;;;;;;;;18.75;100.00;100808.97;10584981;28;20022;-70
2022/07/25 04:13:46;;;;;;;;;;;;;;;18.78;100.00;100814.09;10584869;28;19924;-69
2022/07/25 04:18:50;;;;;;;;;;;;;;;18.85;100.00;100812.97;10584609;28;19934;-71
2022/07/25 04:23:55;;;;;;;;;;;;;;;18.86;100.00;100809.44;10584558;28;19967;-70
2022/07/25 04:29:01;;;;;;;;;;;;;;;18.84;100.00;100809.50;10584568;28;19923;-68
2022/07/25 04:34:04;;;;;;;;;;;;;;;18.85;100.00;100808.59;10586306;28;19935;-70
2022/07/25 04:39:09;;;;;;;;;;;;;;;18.91;100.00;100807.50;10591161;28;20321;-70
2022/07/25 04:44:19;;;;;;;;;;;;;;;18.91;100.00;100808.38;10587249;28;19924;-67
2022/07/25 04:49:25;;;;;;;;;;;;;;;18.83;100.00;100807.78;10346291;28;10000504;-67
2022/07/25 04:54:30;;;;;;;;;;;;;;;18.99;100.00;100802.81;10584843;28;20275;-70
2022/07/25 04:59:33;;;;;;;;;;;;;;;19.08;100.00;100802.47;10586127;28;19931;-68
2022/07/25 05:04:36;;;;;;;;;;;;;;;19.15;100.00;100803.94;10588905;27;19923;-69
2022/07/25 05:09:49;;;;;;;;;;;;;;;19.27;100.00;100800.84;10586285;28;20374;-68
2022/07/25 05:14:53;;;;;;;;;;;;;;;19.31;100.00;100799.84;10584712;28;19928;-70
2022/07/25 05:19:57;;;;;;;;;;;;;;;19.23;100.00;100792.22;10584686;28;20367;-67
2022/07/25 05:25:02;;;;;;;;;;;;;;;19.26;100.00;100791.22;10585245;28;19930;-66
2022/07/25 05:30:07;;;;;;;;;;;;;;;19.31;100.00;100776.16;10585056;28;19927;-69
2022/07/25 05:35:10;;;;;;;;;;;;;;;19.33;100.00;100777.81;10585014;28;19934;-69
2022/07/25 05:40:14;;;;;;;;;;;;;;;19.38;100.00;100769.72;10583836;28;20385;-68
2022/07/25 05:45:18;;;;;;;;;;;;;;;19.41;100.00;100767.81;10583046;28;20357;-68
2022/07/25 05:50:21;;;;;;;;;;;;;;;19.52;100.00;100768.25;10583809;27;20022;-68
2022/07/25 05:55:25;;;;;;;;;;;;;;;19.54;100.00;100765.56;10583005;28;19963;-68
2022/07/25 06:00:28;;;;;;;;;;;;;;;19.62;100.00;100765.28;10625874;27;20341;-66
2022/07/25 06:05:31;;;;;;;;;;;;;;;19.66;100.00;100767.69;10619113;27;20004;-68
2022/07/25 06:10:36;;;;;;;;;;;;;;;19.68;100.00;100757.97;10582785;28;19976;-68
2022/07/25 06:15:39;;;;;;;;;;;;;;;19.73;100.00;100756.00;10583931;28;19924;-69
2022/07/25 06:20:42;;;;;;;;;;;;;;;19.80;100.00;100752.19;10582275;28;19939;-69
2022/07/25 06:25:47;;;;;;;;;;;;;;;19.85;100.00;100749.34;10581809;28;19980;-67
2022/07/25 06:30:52;;;;;;;;;;;;;;;19.94;100.00;100744.56;10582346;28;19924;-66
2022/07/25 06:35:55;;;;;;;;;;;;;;;20.02;100.00;100741.63;10581497;28;19934;-67
2022/07/25 06:41:00;;;;;;;;;;;;;;;19.99;100.00;100733.81;10581319;28;19924;-67
2022/07/25 06:46:03;;;;;;;;;;;;;;;20.04;100.00;100723.94;10580881;28;19933;-67
2022/07/25 06:51:06;;;;;;;;;;;;;;;20.13;100.00;100716.50;10597571;27;20427;-69
2022/07/25 06:56:10;;;;;;;;;;;;;;;20.17;100.00;100710.19;10618027;27;19924;-66
2022/07/25 07:01:19;;;;;;;;;;;;;;;20.27;100.00;100715.94;10580325;28;19924;-66
2022/07/25 07:06:22;;;;;;;;;;;;;;;20.35;100.00;100709.41;10581073;28;19975;-69
2022/07/25 07:11:28;;;;;;;;;;;;;;;20.48;100.00;100709.72;10580119;28;19924;-69
2022/07/25 07:16:31;;;;;;;;;;;;;;;20.55;100.00;100703.25;10579862;28;19932;-67
2022/07/25 07:21:34;;;;;;;;;;;;;;;20.62;100.00;100702.88;10580140;28;19934;-67
2022/07/25 07:26:39;;;;;;;;;;;;;;;20.64;97.31;100706.31;10579391;28;19924;-70
2022/07/25 07:31:42;;;;;;;;;;;;;;;20.71;95.31;100708.69;10580102;28;19924;-67
2022/07/25 07:36:45;;;;;;;;;;;;;;;20.79;96.30;100701.25;10579156;28;20451;-67
2022/07/25 07:41:50;;;;;;;;;;;;;;;20.82;93.78;100686.13;10579638;28;20339;-68
2022/07/25 07:46:53;;;;;;;;;;;;;;;20.81;91.89;100680.94;10580241;28;19931;-67
2022/07/25 07:51:56;;;;;;;;;;;;;;;20.89;90.77;100689.34;10601482;27;20570;-68
2022/07/25 07:57:00;;;;;;;;;;;;;;;20.93;90.03;100681.22;10616764;27;19923;-68
2022/07/25 08:02:03;;;;;;;;;;;;;;;21.07;89.62;100677.97;10584789;28;19924;-67
2022/07/25 08:07:07;;;;;;;;;;;;;;;21.12;87.69;100686.50;10584548;28;20014;-67
2022/07/25 08:12:11;;;;;;;;;;;;;;;21.13;88.05;100677.66;10592664;28;19977;-68
2022/07/25 08:17:14;;;;;;;;;;;;;;;21.22;86.21;100669.28;10593091;28;19932;-67
2022/07/25 08:22:19;;;;;;;;;;;;;;;21.26;84.96;100657.66;10593582;28;20007;-67
2022/07/25 08:27:24;;;;;;;;;;;;;;;21.27;82.39;100662.00;10590656;28;19934;-68
2022/07/25 08:32:27;;;;;;;;;;;;;;;21.30;81.82;100665.34;10586790;28;20423;-66
2022/07/25 08:37:30;;;;;;;;;;;;;;;21.37;82.36;100657.97;10586980;28;20003;-66
2022/07/25 08:42:35;;;;;;;;;;;;;;;21.40;80.97;100655.16;10586230;28;19923;-67
2022/07/25 08:47:39;;;;;;;;;;;;;;;21.46;79.87;100646.94;10585676;28;20565;-68
2022/07/25 08:52:42;;;;;;;;;;;;;;;21.53;79.07;100643.06;10614941;27;19946;-64
2022/07/25 08:57:48;;;;;;;;;;;;;;;21.61;79.17;100643.53;10625982;27;19932;-64
2022/07/25 09:02:51;;;;;;;;;;;;;;;21.77;80.83;100639.19;10585564;28;19924;-66
2022/07/25 09:07:56;;;;;;;;;;;;;;;21.88;81.36;100636.88;10585435;28;20013;-62
2022/07/25 09:13:01;;;;;;;;;;;;;;;21.98;79.76;100632.81;10585309;28;19924;-60
2022/07/25 09:18:05;;;;;;;;;;;;;;;22.16;80.14;100644.22;10583100;28;20280;-60
2022/07/25 09:23:13;;;;;;;;;;;;;;;22.19;80.11;100629.03;10583687;28;19980;-65
2022/07/25 09:28:18;;;;;;;;;;;;;;;22.30;80.53;100621.38;10584169;28;19927;-63
2022/07/25 09:33:21;;;;;;;;;;;;;;;22.57;80.40;100619.88;10586336;28;19953;-62
2022/07/25 09:38:24;;;;;;;;;;;;;;;22.84;78.86;100609.56;10583265;28;19939;-60
2022/07/25 09:43:39;;;;;;;;;;;;;;;23.02;78.23;100607.69;10585053;28;20244;-63
2022/07/25 09:48:44;;;;;;;;;;;;;;;23.18;78.28;100603.19;10582936;28;19928;-66
2022/07/25 09:53:47;;;;;;;;;;;;;;;23.47;76.41;100605.88;10586472;27;19991;-64
2022/07/25 09:58:53;;;;;;;;;;;;;;;23.66;75.36;100601.19;10583089;28;19930;-64
2022/07/25 10:04:05;;;;;;;;;;;;;;;24.25;81.88;100599.34;10583109;28;19924;-65
2022/07/25 10:09:11;;;;;;;;;;;;;;;34.73;49.07;100562.09;10582618;28;19930;-62
2022/07/25 10:14:15;;;;;;;;;;;;;;;43.24;32.00;100533.88;10583597;28;20436;-68
2022/07/25 10:19:34;;;;;;;;;;;;;;;45.90;26.72;100532.47;10582340;28;20252;-64
2022/07/25 10:24:38;;;;;;;;;;;;;;;42.18;28.93;100530.03;10582542;28;19935;-64
2022/07/25 10:29:43;;;;;;;;;;;;;;;33.74;40.13;100547.47;10582976;28;19923;-63
2022/07/25 10:34:51;;;;;;;;;;;;;;;30.76;47.08;100549.03;10581415;28;20319;-63
2022/07/25 10:39:57;;;;;;;;;;;;;;;30.10;50.14;100547.84;10581718;28;19941;-67
2022/07/25 10:45:04;;;;;;;;;;;;;;;29.73;50.84;100544.00;10582199;28;19939;-67
2022/07/25 10:50:10;;;;;;;;;;;;;;;29.13;51.39;100536.69;10587920;27;19923;-68
2022/07/25 10:55:35;;;;;;;;;;;;;;;28.59;53.76;100525.19;10623445;27;19934;-68
2022/07/25 11:00:44;;;;;;;;;;;;;;;27.95;55.46;100525.00;10592407;27;19923;-68
2022/07/25 11:05:47;;;;;;;;;;;;;;;27.97;56.32;100522.19;10581030;28;19927;-65
2022/07/25 11:10:51;;;;;;;;;;;;;;;27.47;57.12;100519.94;10580461;28;19924;-66
2022/07/25 11:15:58;;;;;;;;;;;;;;;27.94;56.15;100517.13;10580897;28;19928;-67
2022/07/25 11:21:01;;;;;;;;;;;;;;;27.99;56.55;100506.91;10579677;28;19935;-66
2022/07/25 11:26:09;;;;;;;;;;;;;;;28.13;57.78;100510.16;10579935;28;19935;-65
2022/07/25 11:31:14;;;;;;;;;;;;;;;28.77;54.75;100502.28;10579336;28;19927;-67
2022/07/25 11:36:18;;;;;;;;;;;;;;;28.96;55.07;100502.47;10580018;28;20014;-69
2022/07/25 11:41:27;;;;;;;;;;;;;;;29.16;54.98;100498.97;10579324;28;19923;-70
2022/07/25 11:46:40;;;;;;;;;;;;;;;29.48;53.68;100495.25;10578596;28;20256;-69
2022/07/25 11:51:44;;;;;;;;;;;;;;;29.58;50.84;100483.75;10600624;27;20047;-68
2022/07/25 11:56:47;;;;;;;;;;;;;;;29.93;51.30;100478.84;10621399;27;20366;-70
2022/07/25 12:01:52;;;;;;;;;;;;;;;30.35;49.85;100464.34;10587609;27;20367;-66
2022/07/25 12:07:03;;;;;;;;;;;;;;;30.53;50.76;100458.16;10579699;28;20019;-69
2022/07/25 12:12:06;;;;;;;;;;;;;;;30.81;50.84;100461.88;10578286;28;19932;-69
2022/07/25 12:17:10;;;;;;;;;;;;;;;30.93;50.33;100458.06;10578571;28;19934;-67
2022/07/25 12:22:14;;;;;;;;;;;;;;;30.84;48.95;100453.53;10578630;28;19934;-69
2022/07/25 12:27:17;;;;;;;;;;;;;;;30.81;49.52;100447.59;10578874;28;19928;-68
2022/07/25 12:32:21;;;;;;;;;;;;;;;30.53;47.97;100441.22;10582737;28;19924;-70
2022/07/25 12:37:25;;;;;;;;;;;;;;;30.75;47.39;100438.28;10584297;28;19965;-71
2022/07/25 12:42:28;;;;;;;;;;;;;;;30.81;46.00;100429.69;10583608;28;19924;-69
2022/07/25 12:47:33;;;;;;;;;;;;;;;30.77;48.03;100430.09;10584086;28;19924;-74
2022/07/25 12:52:36;;;;;;;;;;;;;;;30.94;48.19;100419.53;10583845;28;19924;-69
2022/07/25 12:57:41;;;;;;;;;;;;;;;30.91;47.80;100416.28;10589622;28;19923;-69
2022/07/25 13:02:46;;;;;;;;;;;;;;;31.02;48.60;100421.47;10591363;28;19946;-70
2022/07/25 13:07:51;;;;;;;;;;;;;;;31.03;49.08;100402.56;10591637;28;19984;-67
2022/07/25 13:12:55;;;;;;;;;;;;;;;30.89;47.48;100397.66;10590957;28;20003;-73
2022/07/25 13:17:59;;;;;;;;;;;;;;;30.85;48.77;100392.72;10591044;28;19928;-69
2022/07/25 13:23:02;;;;;;;;;;;;;;;30.88;48.72;100376.34;10590292;28;19927;-68
2022/07/25 13:28:05;;;;;;;;;;;;;;;30.86;48.28;100381.84;10584505;28;19928;-69
2022/07/25 13:33:14;;;;;;;;;;;;;;;30.75;49.14;100371.28;10584700;28;19955;-66
2022/07/25 13:38:17;;;;;;;;;;;;;;;30.91;49.74;100370.72;10584626;28;19924;-70
2022/07/25 13:43:20;;;;;;;;;;;;;;;31.13;49.32;100365.81;10583991;28;20253;-68
2022/07/25 13:48:25;;;;;;;;;;;;;;;31.14;50.22;100351.44;10584124;28;19939;-72
2022/07/25 13:53:32;;;;;;;;;;;;;;;30.98;48.85;100347.69;10583111;28;19928;-68
2022/07/25 13:58:35;;;;;;;;;;;;;;;30.97;49.40;100345.97;10584670;28;19924;-72
2022/07/25 14:03:40;;;;;;;;;;;;;;;30.98;49.10;100340.47;10583396;28;20455;-70
2022/07/25 14:08:43;;;;;;;;;;;;;;;30.81;49.16;100340.38;10582606;28;19957;-69
2022/07/25 14:13:46;;;;;;;;;;;;;;;30.75;49.31;100335.56;10583279;28;19924;-68
2022/07/25 14:18:51;;;;;;;;;;;;;;;30.60;49.26;100333.31;10582343;28;19937;-68
2022/07/25 14:23:54;;;;;;;;;;;;;;;30.55;49.33;100340.09;10581949;28;20254;-69
2022/07/25 14:28:57;;;;;;;;;;;;;;;30.47;48.04;100337.31;10582813;28;19924;-71
2022/07/25 14:34:01;;;;;;;;;;;;;;;30.19;48.72;100324.72;10235337;27;9999740;-68
2022/07/25 14:39:04;;;;;;;;;;;;;;;30.25;50.22;100316.16;10581982;28;19930;-70
2022/07/25 14:44:08;;;;;;;;;;;;;;;30.14;50.30;100316.25;10582188;28;19924;-71
2022/07/25 14:49:15;;;;;;;;;;;;;;;29.92;50.25;100305.81;10582082;28;19923;-69
2022/07/25 14:54:18;;;;;;;;;;;;;;;29.87;50.98;100289.34;10581236;28;20353;-70
2022/07/25 14:59:21;;;;;;;;;;;;;;;29.70;50.14;100288.19;10580741;28;20272;-73
2022/07/25 15:04:26;;;;;;;;;;;;;;;29.66;50.32;100277.88;10579269;28;19938;-70
2022/07/25 15:09:29;;;;;;;;;;;;;;;29.48;51.23;100275.88;10580266;28;19938;-72
2022/07/25 15:14:32;;;;;;;;;;;;;;;29.36;52.14;100271.59;10580678;28;19967;-73
2022/07/25 15:19:36;;;;;;;;;;;;;;;29.22;51.56;100269.31;10579304;28;19946;-70
2022/07/25 15:24:39;;;;;;;;;;;;;;;29.16;52.13;100266.34;10579774;28;20015;-69
2022/07/25 15:30:02;;;;;;;;;;;;;;;28.81;52.34;100253.34;10563852;28;19928;-68
2022/07/25 15:35:08;;;;;;;;;;;;;;;28.33;54.27;100252.22;10580024;28;19934;-68
2022/07/25 15:40:12;;;;;;;;;;;;;;;27.69;56.72;100250.53;10579236;28;20026;-68
2022/07/25 15:45:16;;;;;;;;;;;;;;;27.50;57.80;100261.84;10580030;28;19927;-70
2022/07/25 15:50:38;;;;;;;;;;;;;;;27.35;58.30;100256.91;10579393;28;20276;-67
2022/07/25 15:55:41;;;;;;;;;;;;;;;27.34;58.72;100255.25;10579183;28;19928;-67
2022/07/25 16:00:47;;;;;;;;;;;;;;;27.30;58.79;100250.13;10578473;28;19928;-67
2022/07/25 16:05:52;;;;;;;;;;;;;;;26.90;60.59;100246.28;10585070;28;19924;-68
2022/07/25 16:10:55;;;;;;;;;;;;;;;26.99;58.07;100250.03;10584657;28;19924;-68
2022/07/25 16:15:58;;;;;;;;;;;;;;;26.85;59.14;100245.75;10584611;28;19924;-66
2022/07/25 16:21:03;;;;;;;;;;;;;;;26.70;59.40;100241.66;10584512;28;19950;-66
2022/07/25 16:26:07;;;;;;;;;;;;;;;26.52;59.37;100236.88;10584713;28;20238;-70
2022/07/25 16:31:10;;;;;;;;;;;;;;;26.41;59.46;100234.19;10588461;28;19924;-68
2022/07/25 16:36:14;;;;;;;;;;;;;;;26.44;60.04;100229.47;10592577;28;19924;-68
2022/07/25 16:41:18;;;;;;;;;;;;;;;26.50;59.73;100226.38;10592288;28;19923;-67
2022/07/25 16:46:21;;;;;;;;;;;;;;;26.46;60.74;100224.91;10592279;28;19924;-69
2022/07/25 16:51:31;;;;;;;;;;;;;;;26.52;60.08;100213.78;10592063;28;19928;-66
2022/07/25 16:56:39;;;;;;;;;;;;;;;26.34;62.03;100215.19;10592113;28;19930;-67
2022/07/25 17:01:42;;;;;;;;;;;;;;;26.26;62.91;100212.28;10591536;28;19924;-66
2022/07/25 17:06:46;;;;;;;;;;;;;;;26.24;63.23;100211.56;10591860;28;19998;-68
2022/07/25 17:11:49;;;;;;;;;;;;;;;26.26;61.64;100212.28;10591311;28;19923;-68
2022/07/25 17:16:52;;;;;;;;;;;;;;;26.20;62.01;100199.44;10591141;28;20010;-66
2022/07/25 17:21:56;;;;;;;;;;;;;;;26.15;62.97;100185.63;10590235;28;19934;-66
2022/07/25 17:27:00;;;;;;;;;;;;;;;26.10;63.69;100187.81;10590937;28;19924;-67
2022/07/25 17:32:04;;;;;;;;;;;;;;;26.03;63.13;100184.78;10591246;28;19924;-71
2022/07/25 17:37:09;;;;;;;;;;;;;;;25.99;62.63;100166.44;10590015;28;20328;-68
2022/07/25 17:42:12;;;;;;;;;;;;;;;25.93;62.54;100166.94;10588565;28;19930;-65
2022/07/25 17:47:15;;;;;;;;;;;;;;;25.84;63.58;100157.00;10589721;28;19969;-65
2022/07/25 17:52:19;;;;;;;;;;;;;;;25.75;64.68;100163.84;10590139;28;19928;-69
2022/07/25 17:57:22;;;;;;;;;;;;;;;25.69;65.14;100160.81;10589526;28;19928;-69
2022/07/25 18:02:25;;;;;;;;;;;;;;;25.58;65.99;100153.66;10589604;28;20264;-67
2022/07/25 18:07:29;;;;;;;;;;;;;;;25.50;67.19;100157.84;10589099;28;19934;-68
2022/07/25 18:12:32;;;;;;;;;;;;;;;25.40;67.29;100156.84;10589024;28;19924;-68
2022/07/25 18:17:35;;;;;;;;;;;;;;;25.31;68.71;100157.47;10588487;28;19946;-67
2022/07/25 18:22:40;;;;;;;;;;;;;;;25.21;70.83;100153.81;10588444;28;19923;-67
2022/07/25 18:27:44;;;;;;;;;;;;;;;25.09;71.92;100158.22;10588013;28;19924;-66
2022/07/25 18:32:47;;;;;;;;;;;;;;;24.99;72.79;100146.53;10587948;28;19923;-68
2022/07/25 18:37:52;;;;;;;;;;;;;;;24.87;73.42;100147.44;10587414;28;20363;-67
2022/07/25 18:42:55;;;;;;;;;;;;;;;24.78;73.51;100138.31;10587918;28;19923;-68
2022/07/25 18:47:58;;;;;;;;;;;;;;;24.73;74.19;100137.81;10587409;28;19939;-67
2022/07/25 18:53:02;;;;;;;;;;;;;;;24.67;74.07;100145.31;10586966;28;19936;-66
2022/07/25 18:58:08;;;;;;;;;;;;;;;24.60;74.89;100136.97;10587200;28;19924;-67
2022/07/25 19:03:11;;;;;;;;;;;;;;;24.53;74.16;100142.81;10586794;28;19934;-69
2022/07/25 19:08:16;;;;;;;;;;;;;;;24.47;74.39;100138.78;10586546;28;19923;-69
2022/07/25 19:13:19;;;;;;;;;;;;;;;24.40;75.59;100126.88;10586878;28;20264;-68
2022/07/25 19:18:42;;;;;;;;;;;;;;;24.34;75.30;100127.34;10586799;28;19924;-68
2022/07/25 19:23:47;;;;;;;;;;;;;;;24.27;74.82;100125.22;10585923;28;20036;-69
2022/07/25 19:28:53;;;;;;;;;;;;;;;24.22;73.49;100120.22;10586038;28;19967;-66
2022/07/25 19:33:56;;;;;;;;;;;;;;;24.20;73.52;100118.63;10585744;28;19923;-66
2022/07/25 19:39:00;;;;;;;;;;;;;;;24.14;73.29;100119.06;10587061;28;20264;-68
2022/07/25 19:44:04;;;;;;;;;;;;;;;24.13;72.33;100112.06;10588405;28;19934;-70
2022/07/25 19:49:07;;;;;;;;;;;;;;;24.10;71.84;100113.13;10586524;28;19924;-70
2022/07/25 19:54:12;;;;;;;;;;;;;;;24.06;73.22;100105.50;10585843;28;20367;-68
2022/07/25 19:59:15;;;;;;;;;;;;;;;24.00;73.71;100109.44;10587493;28;19924;-68
2022/07/25 20:04:18;;;;;;;;;;;;;;;23.94;73.15;100108.00;10585481;28;20410;-68
2022/07/25 20:09:22;;;;;;;;;;;;;;;23.86;73.02;100112.13;10579379;28;20273;-67
2022/07/25 20:14:25;;;;;;;;;;;;;;;23.78;73.17;100111.81;10579134;28;19923;-70
2022/07/25 20:19:28;;;;;;;;;;;;;;;23.73;74.10;100108.59;10579522;28;19927;-68
2022/07/25 20:24:33;;;;;;;;;;;;;;;23.64;75.25;100111.91;10578760;28;20480;-70
2022/07/25 20:29:36;;;;;;;;;;;;;;;23.56;75.66;100112.41;10578692;28;19924;-67
2022/07/25 20:34:39;;;;;;;;;;;;;;;23.52;75.64;100110.09;10257985;27;9999949;-68
2022/07/25 20:39:43;;;;;;;;;;;;;;;23.46;75.89;100115.78;10621228;28;20359;-69
2022/07/25 20:44:50;;;;;;;;;;;;;;;23.40;76.13;100106.44;10620774;28;19928;-69
2022/07/25 20:49:53;;;;;;;;;;;;;;;23.36;76.49;100112.03;10621465;28;19938;-64
2022/07/25 20:54:57;;;;;;;;;;;;;;;23.28;76.84;100122.31;10620548;28;20421;-67
2022/07/25 21:00:00;;;;;;;;;;;;;;;23.19;77.71;100112.28;10620341;28;20031;-67
2022/07/25 21:05:03;;;;;;;;;;;;;;;23.15;78.52;100121.38;10620614;28;20062;-67
2022/07/25 21:10:09;;;;;;;;;;;;;;;23.07;79.10;100129.81;10621145;28;19924;-66
2022/07/25 21:15:12;;;;;;;;;;;;;;;23.01;79.19;100143.44;10620234;27;20354;-66
2022/07/25 21:20:15;;;;;;;;;;;;;;;22.99;80.12;100136.56;10627350;27;19935;-66
2022/07/25 21:25:20;;;;;;;;;;;;;;;22.92;80.53;100139.59;10629832;27;19927;-69
2022/07/25 21:30:23;;;;;;;;;;;;;;;22.89;79.84;100145.09;10628779;27;19932;-69
2022/07/25 21:35:26;;;;;;;;;;;;;;;22.83;80.57;100137.53;10588714;27;19934;-67
2022/07/25 21:40:30;;;;;;;;;;;;;;;22.83;81.14;100139.34;10567517;28;19928;-69
2022/07/25 21:45:33;;;;;;;;;;;;;;;22.78;81.69;100139.63;10584339;28;19928;-70
2022/07/25 21:50:40;;;;;;;;;;;;;;;22.70;81.92;100144.56;10583798;28;19953;-69
2022/07/25 21:55:47;;;;;;;;;;;;;;;22.66;82.50;100155.41;10584086;28;19924;-71
2022/07/25 22:00:50;;;;;;;;;;;;;;;22.61;83.45;100152.22;10587044;28;19950;-71
2022/07/25 22:05:53;;;;;;;;;;;;;;;22.56;84.75;100149.88;10589569;28;19924;-70
2022/07/25 22:10:57;;;;;;;;;;;;;;;22.44;85.32;100133.88;10589250;28;20226;-69
2022/07/25 22:16:01;;;;;;;;;;;;;;;22.44;85.42;100121.50;10589107;28;19988;-69
2022/07/25 22:21:04;;;;;;;;;;;;;;;22.39;85.69;100128.88;10588587;28;19927;-72
2022/07/25 22:26:09;;;;;;;;;;;;;;;22.31;85.34;100125.00;10588651;28;19930;-69
2022/07/25 22:31:12;;;;;;;;;;;;;;;22.18;84.75;100116.97;10588048;28;19935;-67
2022/07/25 22:36:15;;;;;;;;;;;;;;;22.11;84.24;100099.78;10588210;28;20272;-67
2022/07/25 22:41:19;;;;;;;;;;;;;;;22.12;84.53;100101.50;10587873;28;20345;-70
2022/07/25 22:46:22;;;;;;;;;;;;;;;22.10;84.19;100099.88;10587720;28;19931;-69
2022/07/25 22:51:26;;;;;;;;;;;;;;;21.99;84.69;100086.44;10587447;28;20257;-69
2022/07/25 22:56:30;;;;;;;;;;;;;;;21.96;84.05;100082.22;10587755;28;19976;-67
2022/07/25 23:01:33;;;;;;;;;;;;;;;21.96;84.04;100078.72;10587198;28;19935;-72
2022/07/25 23:06:36;;;;;;;;;;;;;;;21.97;84.42;100080.44;10586980;28;20316;-69
2022/07/25 23:11:41;;;;;;;;;;;;;;;21.95;85.29;100066.47;10586669;27;20404;-71
2022/07/25 23:17:15;;;;;;;;;;;;;;;21.92;85.55;100070.13;10586407;28;19934;-69
2022/07/25 23:22:07;;;;;;;;;;;;;;;21.85;86.42;100052.09;10586383;28;20474;-69
2022/07/25 23:27:12;;;;;;;;;;;;;;;21.79;87.44;100053.31;10586269;28;19949;-68
2022/07/25 23:32:15;;;;;;;;;;;;;;;21.72;88.29;100046.69;10586158;28;19938;-69
2022/07/25 23:37:18;;;;;;;;;;;;;;;21.63;88.48;100044.59;10585703;28;19924;-68
2022/07/25 23:42:22;;;;;;;;;;;;;;;21.48;88.73;100035.81;10585182;28;20329;-70
2022/07/25 23:47:25;;;;;;;;;;;;;;;21.40;89.11;100019.53;10585649;28;20360;-69
2022/07/25 23:52:41;;;;;;;;;;;;;;;21.31;89.17;100027.19;10585208;28;19923;-68
2022/07/25 23:57:47;;;;;;;;;;;;;;;21.42;89.09;100032.66;10585610;28;19927;-69
